Time;durP1;ratioP1;P1;durP2;ratioP2;P2;SDS_P1;SDS_P2;PMS_P1;PMS_P2;Temp;Humidity;BMP_temperature;BMP_pressure;BME280_temperature;BME280_humidity;BME280_pressure;Samples;Min_cycle;Max_cycle;Signal;HPM_P1;HPM_P2
2021/08/05 00:02:02;;;;;;;8.23;5.90;;;;;;;23.55;51.85;94924.44;4972793;28;20034;-73
2021/08/05 00:04:27;;;;;;;15.70;9.55;;;;;;;23.58;52.03;94925.56;4973172;28;20045;-73
2021/08/05 00:06:53;;;;;;;9.82;7.10;;;;;;;23.66;51.99;94939.94;4974392;28;20030;-75
2021/08/05 00:09:19;;;;;;;6.82;5.75;;;;;;;23.52;51.80;94932.56;4988018;28;20034;-76
2021/08/05 00:11:44;;;;;;;10.75;6.32;;;;;;;23.50;51.92;94918.63;4972715;28;20058;-74
2021/08/05 00:14:09;;;;;;;8.93;5.80;;;;;;;23.61;52.01;94941.09;4972402;28;20400;-73
2021/08/05 00:16:35;;;;;;;17.35;7.93;;;;;;;23.53;52.17;94934.88;4972349;28;20031;-73
2021/08/05 00:19:00;;;;;;;9.23;6.70;;;;;;;23.60;52.10;94950.41;4972658;28;20027;-73
2021/08/05 00:21:25;;;;;;;9.13;6.68;;;;;;;23.28;52.27;94907.81;4974443;28;20026;-73
2021/08/05 00:23:51;;;;;;;6.10;5.47;;;;;;;23.54;52.21;94949.22;4985232;28;20129;-74
2021/08/05 00:26:16;;;;;;;12.98;6.25;;;;;;;23.32;51.89;94922.13;4991383;28;20045;-74
2021/08/05 00:28:42;;;;;;;7.35;5.13;;;;;;;23.41;52.30;94929.88;5006076;23;20593;-72
2021/08/05 00:31:09;;;;;;;7.15;5.43;;;;;;;23.42;52.01;94939.56;4991972;28;20031;-76
2021/08/05 00:33:35;;;;;;;8.02;5.47;;;;;;;23.35;51.73;94924.09;4993995;28;20022;-75
2021/08/05 00:36:01;;;;;;;7.10;5.53;;;;;;;23.45;52.61;94944.22;4991599;28;20058;-76
2021/08/05 00:38:26;;;;;;;7.63;5.90;;;;;;;23.38;52.27;94938.03;4991296;28;20498;-72
2021/08/05 00:40:52;;;;;;;8.90;7.25;;;;;;;23.34;52.39;94938.06;4990466;28;20049;-73
2021/08/05 00:43:20;;;;;;;13.65;8.13;;;;;;;23.34;52.45;94938.81;4991927;28;20035;-75
2021/08/05 00:45:47;;;;;;;8.90;6.55;;;;;;;23.26;52.80;94931.84;4992166;28;20026;-75
2021/08/05 00:48:13;;;;;;;10.13;6.28;;;;;;;23.35;52.54;94943.09;4990449;28;20039;-75
2021/08/05 00:50:39;;;;;;;8.20;6.30;;;;;;;23.20;52.42;94927.22;4992019;28;20050;-76
2021/08/05 00:53:05;;;;;;;12.32;6.85;;;;;;;23.39;52.87;94940.38;4991411;28;20085;-73
2021/08/05 00:55:31;;;;;;;9.18;7.25;;;;;;;23.39;52.11;94928.72;4991373;28;20069;-74
2021/08/05 00:57:56;;;;;;;7.82;6.38;;;;;;;23.38;52.17;94924.47;4991665;28;20472;-74
2021/08/05 01:00:25;;;;;;;15.15;7.85;;;;;;;23.57;51.85;94937.59;4993707;28;20522;-73
2021/08/05 01:03:08;;;;;;;11.48;8.20;;;;;;;23.57;51.92;94932.16;4991830;28;20093;-75
2021/08/05 01:05:40;;;;;;;11.45;8.18;;;;;;;23.60;51.82;94934.88;4991381;28;20043;-75
2021/08/05 01:08:05;;;;;;;11.55;6.97;;;;;;;23.68;52.22;94934.88;4991122;28;20476;-76
2021/08/05 01:10:43;;;;;;;13.32;8.27;;;;;;;23.73;51.75;94924.38;4991094;28;20140;-73
2021/08/05 01:13:08;;;;;;;11.45;8.55;;;;;;;23.84;51.81;94932.50;5006363;28;20026;-80
2021/08/05 01:15:34;;;;;;;14.40;8.80;;;;;;;23.81;51.67;94920.50;5008589;28;20125;-75
2021/08/05 01:18:12;;;;;;;14.93;9.77;;;;;;;23.88;51.83;94929.78;4991774;28;20042;-77
2021/08/05 01:20:43;;;;;;;14.57;9.70;;;;;;;23.83;51.82;94918.13;4990968;28;20037;-74
2021/08/05 01:23:08;;;;;;;13.93;8.68;;;;;;;23.65;49.81;94920.16;4990194;28;20042;-75
2021/08/05 01:25:45;;;;;;;15.82;10.27;;;;;;;23.50;50.47;94915.91;4990506;28;20046;-74
2021/08/05 01:28:12;;;;;;;10.40;8.20;;;;;;;23.21;51.02;94905.09;4990695;28;20030;-72
2021/08/05 01:30:41;;;;;;;17.20;9.32;;;;;;;23.12;52.70;94907.44;4992859;28;20105;-72
2021/08/05 01:33:07;;;;;;;9.10;6.07;;;;;;;21.82;54.09;94915.00;4990888;28;20035;-73
2021/08/05 01:35:34;;;;;;;7.55;6.25;;;;;;;21.28;55.22;94920.09;4989189;28;20074;-72
2021/08/05 01:38:01;;;;;;;11.05;7.57;;;;;;;20.47;58.37;94921.81;4989998;28;20053;-72
2021/08/05 01:40:28;;;;;;;14.38;9.38;;;;;;;20.80;57.68;94927.50;4990582;28;20045;-74
2021/08/05 01:42:56;;;;;;;12.00;6.93;;;;;;;20.30;58.61;94921.63;4992840;28;20022;-73
2021/08/05 01:45:22;;;;;;;7.82;5.10;;;;;;;20.28;58.59;94919.28;4990068;28;20455;-75
2021/08/05 01:47:48;;;;;;;7.93;4.68;;;;;;;19.74;60.15;94921.41;5005733;28;20038;-76
2021/08/05 01:50:14;;;;;;;5.28;4.28;;;;;;;19.95;60.36;94906.59;5006491;28;20043;-76
2021/08/05 01:52:41;;;;;;;9.15;5.20;;;;;;;20.32;58.50;94913.91;4989621;28;20149;-77
2021/08/05 01:55:08;;;;;;;11.80;5.85;;;;;;;20.03;59.54;94929.81;4986338;28;20026;-77
2021/08/05 01:57:34;;;;;;;15.93;5.30;;;;;;;19.90;59.78;94921.19;4991340;28;20022;-76
2021/08/05 01:59:59;;;;;;;9.63;5.85;;;;;;;20.27;59.09;94917.75;4991001;28;20046;-77
2021/08/05 02:02:25;;;;;;;10.15;5.70;;;;;;;19.04;62.06;94923.88;4990955;28;20117;-77
2021/08/05 02:05:28;;;;;;;11.55;6.97;;;;;;;18.98;63.11;94917.25;4990847;28;20045;-76
2021/08/05 02:08:00;;;;;;;12.50;6.60;;;;;;;18.64;63.05;94912.50;4968196;28;20038;-75
2021/08/05 02:10:31;;;;;;;8.45;6.45;;;;;;;18.87;62.59;94909.00;4990494;28;20026;-75
2021/08/05 02:13:01;;;;;;;10.90;7.80;;;;;;;19.18;62.20;94929.50;4989246;28;20026;-77
2021/08/05 02:15:29;;;;;;;16.27;9.85;;;;;;;19.74;60.78;94918.69;4991203;28;20022;-76
2021/08/05 02:17:55;;;;;;;22.15;9.73;;;;;;;20.11;59.47;94928.75;4990007;28;20034;-76
2021/08/05 02:20:20;;;;;;;17.95;9.10;;;;;;;19.72;61.50;94929.09;4988751;28;20042;-75
2021/08/05 02:22:47;;;;;;;13.82;8.38;;;;;;;20.16;59.78;94924.94;4990100;28;20058;-76
2021/08/05 02:25:13;;;;;;;10.60;7.25;;;;;;;19.40;61.77;94930.59;4986048;28;20023;-76
2021/08/05 02:27:40;;;;;;;10.88;7.10;;;;;;;20.23;60.08;94923.09;5006383;28;20035;-74
2021/08/05 02:30:07;;;;;;;13.60;7.78;;;;;;;20.18;59.84;94922.66;4989965;28;20050;-75
2021/08/05 02:32:34;;;;;;;14.07;9.40;;;;;;;20.60;59.19;94930.41;5005070;28;20499;-73
2021/08/05 02:35:02;;;;;;;16.05;10.15;;;;;;;20.77;58.53;94924.38;4989122;28;20177;-74
2021/08/05 02:37:28;;;;;;;12.80;8.88;;;;;;;20.23;59.68;94919.63;4989480;28;20113;-74
2021/08/05 02:39:53;;;;;;;15.82;10.88;;;;;;;20.21;58.20;94903.78;4990994;28;20074;-74
2021/08/05 02:42:20;;;;;;;28.88;12.77;;;;;;;21.09;58.09;94904.13;5004792;28;20129;-74
2021/08/05 02:44:46;;;;;;;14.70;10.30;;;;;;;20.12;58.76;94906.00;4989564;28;20046;-74
2021/08/05 02:47:11;;;;;;;10.90;9.10;;;;;;;20.06;59.01;94915.56;4988272;28;20046;-74
2021/08/05 02:49:38;;;;;;;23.42;10.68;;;;;;;20.40;59.61;94908.22;4988506;28;20034;-74
2021/08/05 02:52:05;;;;;;;17.17;9.27;;;;;;;20.59;58.59;94906.47;4987878;28;20038;-75
2021/08/05 02:54:30;;;;;;;10.50;8.18;;;;;;;20.56;58.83;94907.97;4989689;28;20046;-75
2021/08/05 02:56:57;;;;;;;15.90;8.50;;;;;;;20.68;57.89;94871.81;4987054;28;20039;-72
2021/08/05 02:59:26;;;;;;;13.48;8.15;;;;;;;20.82;57.89;94892.75;4989389;28;20062;-74
2021/08/05 03:01:51;;;;;;;19.33;8.88;;;;;;;21.27;57.43;94913.91;4989285;28;20500;-75
2021/08/05 03:04:17;;;;;;;9.55;6.97;;;;;;;21.07;57.25;94850.44;4989404;28;20041;-74
2021/08/05 03:06:42;;;;;;;10.98;7.63;;;;;;;21.09;57.55;94858.16;4989625;28;20022;-73
2021/08/05 03:09:07;;;;;;;12.00;8.00;;;;;;;21.48;56.65;94902.44;4989015;28;20045;-74
2021/08/05 03:11:33;;;;;;;13.10;8.82;;;;;;;20.54;57.71;94883.28;4989530;28;20050;-73
2021/08/05 03:13:58;;;;;;;9.27;8.10;;;;;;;20.42;58.32;94872.69;4988124;28;20563;-74
2021/08/05 03:16:24;;;;;;;11.48;8.05;;;;;;;19.87;59.24;94918.47;4987843;28;20488;-73
2021/08/05 03:18:49;;;;;;;11.55;8.73;;;;;;;20.01;60.00;94910.50;4991554;28;20027;-74
2021/08/05 03:21:14;;;;;;;12.27;9.45;;;;;;;19.97;60.63;94910.50;4989133;28;20034;-73
2021/08/05 03:23:40;;;;;;;18.80;11.10;;;;;;;20.17;59.98;94904.91;4988626;28;20165;-73
2021/08/05 03:26:07;;;;;;;18.98;11.30;;;;;;;20.07;58.63;94892.84;4987424;28;20034;-73
2021/08/05 03:28:33;;;;;;;16.13;10.77;;;;;;;19.25;61.30;94891.09;4989211;28;20073;-74
2021/08/05 03:30:58;;;;;;;15.07;11.15;;;;;;;19.48;61.87;94902.53;4987890;28;20514;-74
2021/08/05 03:33:24;;;;;;;20.17;10.88;;;;;;;19.63;60.61;94915.09;4990930;28;20030;-73
2021/08/05 03:35:49;;;;;;;20.40;10.88;;;;;;;19.73;60.62;94905.56;4988687;28;20077;-74
2021/08/05 03:38:14;;;;;;;15.65;10.65;;;;;;;20.46;58.79;94878.91;5003557;28;20074;-73
2021/08/05 03:40:40;;;;;;;20.00;11.73;;;;;;;19.80;59.85;94902.19;4988904;28;20038;-74
2021/08/05 03:43:05;;;;;;;15.48;10.07;;;;;;;19.62;59.60;94883.09;4989289;28;20113;-73
2021/08/05 03:45:30;;;;;;;15.05;10.35;;;;;;;19.74;60.49;94902.50;4991212;28;20084;-73
2021/08/05 03:47:56;;;;;;;12.30;8.30;;;;;;;19.22;61.40;94908.75;4992233;28;20522;-74
2021/08/05 03:50:21;;;;;;;15.85;10.18;;;;;;;19.30;61.72;94896.16;4992773;28;20038;-73
2021/08/05 03:52:47;;;;;;;15.32;10.38;;;;;;;19.11;61.52;94899.75;4992802;28;20042;-71
2021/08/05 03:55:13;;;;;;;13.80;9.50;;;;;;;18.61;63.24;94888.19;4990506;28;20045;-74
2021/08/05 03:57:42;;;;;;;13.70;10.15;;;;;;;18.98;63.02;94883.00;4993714;28;20113;-73
2021/08/05 04:00:13;;;;;;;14.65;10.23;;;;;;;19.47;62.31;94919.88;4992500;28;20042;-73
2021/08/05 04:02:39;;;;;;;18.08;11.32;;;;;;;19.25;61.94;94918.03;4991918;28;20233;-72
2021/08/05 04:05:05;;;;;;;19.40;11.45;;;;;;;18.68;63.44;94869.44;4992197;28;20054;-71
2021/08/05 04:07:30;;;;;;;20.50;12.63;;;;;;;19.08;62.43;94914.72;4991607;28;20085;-71
2021/08/05 04:09:56;;;;;;;25.73;13.50;;;;;;;19.48;61.46;94902.53;4991266;28;20558;-72
2021/08/05 04:12:21;;;;;;;22.30;12.82;;;;;;;19.21;62.14;94907.19;4994227;28;20081;-71
2021/08/05 04:14:46;;;;;;;23.83;13.73;;;;;;;19.39;61.16;94885.84;4991893;28;20048;-72
2021/08/05 04:17:12;;;;;;;24.17;13.95;;;;;;;19.86;60.26;94900.69;4991465;28;20052;-72
2021/08/05 04:19:37;;;;;;;21.73;13.30;;;;;;;19.39;61.27;94893.94;4992133;28;20443;-71
2021/08/05 04:22:02;;;;;;;21.75;13.25;;;;;;;19.15;61.55;94893.25;4991708;28;20022;-71
2021/08/05 04:24:28;;;;;;;26.27;13.50;;;;;;;18.68;63.63;94891.81;4986974;28;20030;-73
2021/08/05 04:26:53;;;;;;;25.45;13.65;;;;;;;19.39;61.33;94896.63;4991213;28;20034;-71
2021/08/05 04:29:18;;;;;;;26.92;13.48;;;;;;;19.62;61.49;94891.19;4992394;28;20041;-71
2021/08/05 04:31:44;;;;;;;25.88;14.32;;;;;;;19.29;61.89;94910.75;4990619;28;20027;-71
2021/08/05 04:34:09;;;;;;;25.60;13.80;;;;;;;18.66;62.42;94863.63;4991750;28;20058;-71
2021/08/05 04:36:34;;;;;;;25.63;13.68;;;;;;;19.56;60.87;94895.31;4991737;28;20456;-72
2021/08/05 04:39:00;;;;;;;23.60;13.48;;;;;;;19.47;61.88;94903.69;4991075;28;20038;-73
2021/08/05 04:41:25;;;;;;;27.05;13.80;;;;;;;19.08;61.60;94885.06;4991500;28;20030;-71
2021/08/05 04:43:51;;;;;;;21.58;13.32;;;;;;;19.71;60.48;94889.75;4991551;28;20037;-71
2021/08/05 04:46:17;;;;;;;22.05;13.20;;;;;;;20.20;59.52;94894.13;4990766;28;20042;-71
2021/08/05 04:48:42;;;;;;;25.90;14.00;;;;;;;19.76;59.73;94863.56;4991838;28;20018;-71
2021/08/05 04:51:08;;;;;;;15.65;11.82;;;;;;;19.54;60.20;94874.09;4990094;28;20641;-71
2021/08/05 04:53:33;;;;;;;21.13;12.98;;;;;;;18.84;62.33;94882.81;5006084;28;20153;-71
2021/08/05 04:55:58;;;;;;;17.73;12.65;;;;;;;19.79;59.80;94887.91;4988997;28;20042;-72
2021/08/05 04:58:24;;;;;;;20.88;12.63;;;;;;;19.25;61.00;94891.09;4988834;28;20057;-71
2021/08/05 05:00:50;;;;;;;19.73;12.95;;;;;;;19.92;59.73;94881.13;4993280;28;20026;-71
2021/08/05 05:03:16;;;;;;;19.50;13.98;;;;;;;19.91;59.65;94878.78;4991045;28;20034;-71
2021/08/05 05:05:41;;;;;;;23.08;15.15;;;;;;;20.58;57.85;94896.81;4990522;28;20141;-71
2021/08/05 05:08:15;;;;;;;23.85;15.27;;;;;;;21.27;57.63;94892.28;4990999;28;20114;-71
2021/08/05 05:10:40;;;;;;;23.67;13.95;;;;;;;20.18;58.46;94888.31;4990093;28;20035;-71
2021/08/05 05:13:06;;;;;;;17.98;12.00;;;;;;;20.31;58.05;94888.81;4990861;28;20033;-72
2021/08/05 05:15:31;;;;;;;16.65;13.57;;;;;;;20.87;56.99;94876.19;4992569;28;20069;-71
2021/08/05 05:17:56;;;;;;;21.38;12.50;;;;;;;20.92;56.87;94884.72;4990552;28;20492;-71
2021/08/05 05:20:22;;;;;;;21.08;12.38;;;;;;;20.74;57.74;94887.28;4990499;28;20042;-71
2021/08/05 05:22:47;;;;;;;20.45;12.50;;;;;;;21.67;55.52;94887.84;4990508;28;20172;-72
2021/08/05 05:25:13;;;;;;;14.57;10.82;;;;;;;21.49;55.23;94876.94;4988630;28;20054;-71
2021/08/05 05:27:40;;;;;;;14.48;11.40;;;;;;;21.12;56.46;94890.63;4990481;28;20428;-71
2021/08/05 05:30:07;;;;;;;17.13;11.43;;;;;;;21.68;55.50;94889.41;4990155;28;20042;-73
2021/08/05 05:32:32;;;;;;;14.55;9.73;;;;;;;21.83;55.55;94889.47;4990234;28;20031;-71
2021/08/05 05:34:58;;;;;;;10.35;9.20;;;;;;;20.56;56.89;94899.88;4990492;28;20141;-71
2021/08/05 05:37:24;;;;;;;15.95;9.32;;;;;;;19.93;59.44;94895.41;4989899;28;20042;-71
2021/08/05 05:39:51;;;;;;;11.60;8.60;;;;;;;20.06;59.82;94904.00;4991453;28;20037;-71
2021/08/05 05:42:17;;;;;;;13.32;9.48;;;;;;;20.46;58.10;94897.84;4988780;28;20034;-71
2021/08/05 05:44:43;;;;;;;11.05;9.45;;;;;;;19.77;59.47;94882.13;4989976;28;20030;-72
2021/08/05 05:47:08;;;;;;;12.20;9.27;;;;;;;20.28;58.95;94891.50;5004707;28;20097;-71
2021/08/05 05:49:33;;;;;;;9.77;8.82;;;;;;;20.35;57.93;94881.53;5004414;28;20041;-72
2021/08/05 05:51:59;;;;;;;13.00;9.13;;;;;;;20.36;58.32;94903.91;4987220;28;20408;-67
2021/08/05 05:54:25;;;;;;;10.65;8.32;;;;;;;20.57;57.01;94890.63;4991955;28;20018;-68
2021/08/05 05:56:50;;;;;;;13.63;10.38;;;;;;;21.51;54.81;94909.06;4989061;28;20751;-69
2021/08/05 05:59:16;;;;;;;12.65;9.82;;;;;;;19.62;59.31;94881.16;4989835;28;20050;-70
2021/08/05 06:01:41;;;;;;;15.85;9.48;;;;;;;21.13;56.73;94897.59;4988494;28;20031;-71
2021/08/05 06:04:07;;;;;;;11.05;9.40;;;;;;;20.14;57.89;94890.22;4989972;28;20031;-71
2021/08/05 06:06:32;;;;;;;20.38;9.90;;;;;;;19.58;60.05;94904.59;4989932;28;20019;-69
2021/08/05 06:09:00;;;;;;;12.75;9.32;;;;;;;20.15;58.63;94893.69;4988970;28;20039;-71
2021/08/05 06:11:26;;;;;;;10.52;8.68;;;;;;;19.48;59.52;94886.34;4989529;28;20038;-71
2021/08/05 06:13:53;;;;;;;13.73;9.48;;;;;;;19.97;58.93;94891.59;4988676;28;20038;-70
2021/08/05 06:16:19;;;;;;;11.82;9.15;;;;;;;20.04;58.67;94925.97;4989173;28;20042;-69
2021/08/05 06:18:44;;;;;;;10.85;8.20;;;;;;;20.28;58.00;94902.31;4990389;28;20030;-69
2021/08/05 06:21:09;;;;;;;11.63;8.38;;;;;;;20.62;56.98;94921.94;4989623;28;20046;-70
2021/08/05 06:23:36;;;;;;;12.18;9.07;;;;;;;20.72;56.51;94902.31;4983665;28;20450;-70
2021/08/05 06:26:01;;;;;;;12.93;8.50;;;;;;;20.28;57.84;94896.91;4985620;28;20046;-70
2021/08/05 06:28:27;;;;;;;13.30;9.30;;;;;;;20.33;58.65;94910.84;4989144;28;20053;-71
2021/08/05 06:30:52;;;;;;;10.00;7.90;;;;;;;20.36;57.83;94903.91;4990992;28;20101;-70
2021/08/05 06:33:18;;;;;;;10.95;8.82;;;;;;;20.32;58.05;94919.31;4989504;28;20652;-71
2021/08/05 06:35:43;;;;;;;9.80;8.07;;;;;;;20.69;57.41;94914.66;4988790;28;20446;-71
2021/08/05 06:38:08;;;;;;;9.80;8.02;;;;;;;20.87;56.75;94912.09;4989117;28;20074;-71
2021/08/05 06:40:34;;;;;;;11.55;8.02;;;;;;;21.79;54.38;94909.16;5003849;28;20075;-71
2021/08/05 06:42:59;;;;;;;8.75;7.65;;;;;;;21.23;55.18;94909.63;4989689;28;20106;-71
2021/08/05 06:45:25;;;;;;;10.40;7.45;;;;;;;21.68;53.79;94921.88;4991590;28;20110;-72
2021/08/05 06:47:50;;;;;;;8.52;6.85;;;;;;;21.10;55.04;94892.94;4989011;28;20542;-72
2021/08/05 06:50:17;;;;;;;7.57;6.18;;;;;;;21.05;55.19;94909.53;4987759;28;20035;-72
2021/08/05 06:52:42;;;;;;;8.48;6.43;;;;;;;21.16;56.12;94904.97;4988798;28;20093;-74
2021/08/05 06:55:08;;;;;;;5.63;5.07;;;;;;;20.88;55.89;94885.84;4987382;28;20038;-73
2021/08/05 06:57:36;;;;;;;5.28;4.78;;;;;;;20.72;56.73;94872.59;5005785;28;20026;-73
2021/08/05 07:00:02;;;;;;;5.13;4.50;;;;;;;21.31;55.59;94905.09;4989550;28;20425;-73
2021/08/05 07:02:28;;;;;;;5.20;3.00;;;;;;;22.15;53.78;94897.69;4989349;28;20030;-73
2021/08/05 07:04:53;;;;;;;4.25;3.22;;;;;;;21.85;54.33;94920.41;4989638;28;20427;-75
2021/08/05 07:07:21;;;;;;;5.10;3.17;;;;;;;21.95;53.37;94883.69;5004360;28;20492;-74
2021/08/05 07:09:46;;;;;;;3.83;3.17;;;;;;;20.49;57.51;94880.91;4991007;28;20034;-75
2021/08/05 07:12:13;;;;;;;3.88;3.08;;;;;;;;;;5004757;28;20066;-76
2021/08/05 07:14:39;;;;;;;3.17;2.83;;;;;;;21.97;54.74;94893.00;5004885;28;20062;-79
2021/08/05 07:17:04;;;;;;;4.65;3.50;;;;;;;22.81;53.25;94893.50;4987425;28;20567;-78
2021/08/05 07:19:31;;;;;;;2.65;2.42;;;;;;;21.89;52.26;94877.09;4989108;28;20034;-78
2021/08/05 07:21:56;;;;;;;3.85;3.20;;;;;;;22.15;52.48;94884.91;4991162;28;20027;-75
2021/08/05 07:24:22;;;;;;;2.63;2.42;;;;;;;22.62;50.50;94857.88;4994688;28;20068;-80
2021/08/05 07:26:48;;;;;;;4.47;2.50;;;;;;;22.09;53.09;94931.72;4992109;28;20042;-74
2021/08/05 07:29:13;;;;;;;3.13;2.65;;;;;;;22.49;53.87;94911.69;4993021;28;20038;-73
2021/08/05 07:31:39;;;;;;;2.90;2.28;;;;;;;22.48;53.00;94889.25;5008470;28;20035;-76
2021/08/05 07:34:05;;;;;;;3.13;2.72;;;;;;;22.05;52.48;94901.91;4992459;28;20023;-70
2021/08/05 07:36:30;;;;;;;3.05;2.80;;;;;;;22.30;52.90;94913.59;4994509;28;20026;-69
2021/08/05 07:38:56;;;;;;;3.00;2.70;;;;;;;22.95;52.55;94924.53;4991617;28;20121;-76
2021/08/05 07:41:21;;;;;;;3.28;2.67;;;;;;;23.53;51.86;94896.09;4990159;28;20046;-73
2021/08/05 07:43:47;;;;;;;2.58;2.38;;;;;;;21.90;52.56;94857.75;4991521;28;20038;-69
2021/08/05 07:46:13;;;;;;;3.75;2.47;;;;;;;22.54;53.16;94903.94;4991896;28;20029;-73
2021/08/05 07:48:39;;;;;;;4.07;2.50;;;;;;;23.50;52.17;94924.06;4994274;28;20041;-76
2021/08/05 07:51:05;;;;;;;3.53;3.22;;;;;;;23.47;51.44;94911.25;4992660;28;20061;-73
2021/08/05 07:53:30;;;;;;;3.70;2.83;;;;;;;22.49;51.71;94909.75;4990200;28;20121;-71
2021/08/05 07:55:56;;;;;;;3.50;3.20;;;;;;;23.41;51.62;94891.13;4990816;28;20043;-74
2021/08/05 07:58:21;;;;;;;4.47;2.85;;;;;;;23.31;50.83;94909.75;5007539;28;20061;-71
2021/08/05 08:00:47;;;;;;;3.15;2.83;;;;;;;24.14;51.15;94910.25;4994427;28;20053;-74
2021/08/05 08:03:13;;;;;;;3.25;3.05;;;;;;;21.91;53.35;94913.47;4992384;28;20510;-68
2021/08/05 08:05:40;;;;;;;3.10;2.90;;;;;;;23.47;50.42;94901.16;5006138;28;20047;-72
2021/08/05 08:08:06;;;;;;;3.72;3.35;;;;;;;23.43;49.34;94907.78;4990586;28;20559;-73
2021/08/05 08:10:32;;;;;;;4.85;3.45;;;;;;;23.51;50.72;94917.47;4990412;28;20034;-69
2021/08/05 08:12:58;;;;;;;5.22;3.60;;;;;;;24.71;50.17;94914.56;4991907;28;20524;-71
2021/08/05 08:15:24;;;;;;;3.78;3.47;;;;;;;23.12;51.64;94918.28;4993966;28;20039;-70
2021/08/05 08:17:56;;;;;;;5.20;3.40;;;;;;;24.38;48.21;94933.81;4992103;28;20034;-76
2021/08/05 08:20:22;;;;;;;3.85;3.20;;;;;;;23.93;49.84;94924.69;4992611;28;20054;-76
2021/08/05 08:22:48;;;;;;;4.70;3.67;;;;;;;24.73;49.72;94914.94;4992843;28;20038;-74
2021/08/05 08:25:14;;;;;;;4.20;3.83;;;;;;;24.82;46.54;94935.06;5006794;28;20034;-75
2021/08/05 08:27:41;;;;;;;3.97;3.10;;;;;;;23.68;49.49;94924.03;4993144;28;20037;-73
2021/08/05 08:30:09;;;;;;;3.65;3.35;;;;;;;24.24;50.25;94933.88;4991898;28;20041;-73
2021/08/05 08:32:35;;;;;;;3.80;3.30;;;;;;;25.02;49.14;94923.63;4990946;28;20046;-70
2021/08/05 08:35:00;;;;;;;5.38;3.63;;;;;;;24.89;48.34;94932.31;4990917;28;20096;-69
2021/08/05 08:37:25;;;;;;;4.72;4.32;;;;;;;22.19;53.30;94945.31;4991385;28;20039;-69
2021/08/05 08:39:51;;;;;;;4.65;4.25;;;;;;;22.36;54.55;94943.78;4991382;28;20031;-78
2021/08/05 08:42:18;;;;;;;4.68;4.28;;;;;;;22.15;54.27;94903.88;4990018;28;20048;-78
2021/08/05 08:44:44;;;;;;;4.72;4.32;;;;;;;22.49;53.67;94930.66;4991930;28;20428;-78
2021/08/05 08:47:10;;;;;;;4.35;3.90;;;;;;;23.99;51.76;94936.69;4992614;28;20041;-78
2021/08/05 08:49:36;;;;;;;4.47;3.85;;;;;;;23.25;51.63;94926.81;4990480;28;20042;-77
2021/08/05 08:52:02;;;;;;;5.10;4.00;;;;;;;25.27;48.92;94904.38;4989796;28;20125;-77
2021/08/05 08:54:29;;;;;;;7.80;4.55;;;;;;;25.48;48.21;94892.50;4992978;28;20054;-77
2021/08/05 08:56:56;;;;;;;5.00;4.13;;;;;;;25.68;48.19;94921.44;4990453;28;20043;-78
2021/08/05 08:59:22;;;;;;;5.30;4.07;;;;;;;24.45;48.34;94905.03;4991322;28;20026;-79
2021/08/05 09:01:48;;;;;;;4.50;4.10;;;;;;;23.54;51.07;94920.13;4991242;28;20053;-78
2021/08/05 09:04:14;;;;;;;4.20;3.72;;;;;;;23.51;52.28;94934.50;4992800;28;20034;-77
2021/08/05 09:06:40;;;;;;;4.13;3.70;;;;;;;22.67;54.04;94931.44;4992632;28;20109;-77
2021/08/05 09:09:07;;;;;;;4.60;3.92;;;;;;;22.57;52.12;94937.63;4992009;28;20415;-78
2021/08/05 09:11:34;;;;;;;3.78;3.47;;;;;;;24.29;48.95;94929.97;4991282;28;20042;-77
2021/08/05 09:13:59;;;;;;;4.63;4.32;;;;;;;23.40;51.99;94922.16;4991498;28;20072;-79
2021/08/05 09:16:31;;;;;;;4.53;3.95;;;;;;;24.75;46.51;94931.63;4992946;28;20057;-78
2021/08/05 09:19:15;;;;;;;5.30;3.95;;;;;;;24.77;46.51;94924.63;4993116;28;20049;-69
2021/08/05 09:21:51;;;;;;;4.70;3.67;;;;;;;25.72;45.27;94907.81;4994084;28;20037;-78
2021/08/05 09:24:17;;;;;;;4.30;3.90;;;;;;;23.10;48.98;94915.22;5007723;28;20034;-76
2021/08/05 09:26:49;;;;;;;4.15;3.75;;;;;;;23.99;49.33;94911.47;4991137;28;20496;-77
2021/08/05 09:29:23;;;;;;;4.60;3.63;;;;;;;23.94;49.67;94912.66;4992052;28;20531;-78
2021/08/05 09:31:53;;;;;;;7.45;3.42;;;;;;;24.00;48.98;94923.88;4990956;28;20050;-79
2021/08/05 09:34:30;;;;;;;3.50;3.20;;;;;;;23.52;50.04;94917.06;4991232;28;20415;-78
2021/08/05 09:37:14;;;;;;;3.38;3.08;;;;;;;24.30;49.80;94907.81;4994412;28;20058;-79
2021/08/05 09:39:41;;;;;;;3.72;3.45;;;;;;;23.93;49.59;94916.56;4993206;28;20045;-78
2021/08/05 09:42:12;;;;;;;3.63;3.33;;;;;;;23.72;48.44;94911.22;4991799;28;20684;-79
2021/08/05 09:44:37;;;;;;;4.20;3.90;;;;;;;24.16;48.02;94912.53;4991031;28;20042;-81
2021/08/05 09:47:07;;;;;;;3.95;3.33;;;;;;;26.37;44.90;94905.81;4991047;28;20527;-76
2021/08/05 09:49:37;;;;;;;3.53;3.33;;;;;;;25.56;43.81;94894.75;4991420;28;20492;-80
2021/08/05 09:52:05;;;;;;;3.50;3.20;;;;;;;24.53;46.80;94898.38;4991638;28;20030;-80
2021/08/05 09:54:48;;;;;;;4.65;3.55;;;;;;;25.02;43.82;94894.47;5008682;28;20072;-80
2021/08/05 09:57:23;;;;;;;3.90;3.53;;;;;;;24.64;45.92;94875.38;5005644;28;20042;-77
2021/08/05 09:59:53;;;;;;;3.30;3.00;;;;;;;24.48;43.89;94905.03;4991348;28;20432;-77
2021/08/05 10:02:20;;;;;;;3.30;3.03;;;;;;;24.94;44.59;94895.72;4991128;28;20747;-77
2021/08/05 10:04:46;;;;;;;3.83;3.17;;;;;;;23.14;49.77;94913.28;4989556;28;20133;-78
2021/08/05 10:07:12;;;;;;;4.15;2.88;;;;;;;24.53;47.34;94898.38;4990580;28;20050;-77
2021/08/05 10:09:38;;;;;;;2.92;2.72;;;;;;;25.98;46.61;94898.16;4992768;28;20054;-73
2021/08/05 10:12:24;;;;;;;5.15;2.65;;;;;;;26.68;45.70;94903.06;4990157;28;20045;-74
2021/08/05 10:15:03;;;;;;;3.20;2.92;;;;;;;27.07;44.58;94898.91;4989718;28;20419;-76
2021/08/05 10:17:29;;;;;;;4.82;3.13;;;;;;;26.18;42.95;94890.13;4989749;28;20495;-77
2021/08/05 10:19:57;;;;;;;3.35;3.10;;;;;;;25.49;44.93;94892.13;4990445;28;20057;-73
2021/08/05 10:22:23;;;;;;;3.35;3.05;;;;;;;26.38;42.43;94892.97;4987765;28;20426;-73
2021/08/05 10:24:50;;;;;;;3.58;3.28;;;;;;;27.04;42.11;94892.34;4992425;28;20061;-76
2021/08/05 10:27:19;;;;;;;2.92;2.72;;;;;;;27.37;42.31;94865.25;4987411;28;20042;-74
2021/08/05 10:29:46;;;;;;;3.05;2.83;;;;;;;28.09;42.61;94891.94;4989963;28;20054;-74
2021/08/05 10:32:14;;;;;;;3.63;3.33;;;;;;;28.36;42.17;94887.09;4989918;28;20031;-74
2021/08/05 10:34:40;;;;;;;4.00;2.90;;;;;;;28.32;41.80;94864.50;4989724;28;20034;-74
2021/08/05 10:37:08;;;;;;;4.32;2.60;;;;;;;28.42;42.52;94866.25;4989322;28;20472;-74
2021/08/05 10:39:36;;;;;;;3.92;2.90;;;;;;;28.61;42.09;94888.47;4990450;28;20109;-74
2021/08/05 10:42:09;;;;;;;3.97;2.55;;;;;;;28.70;42.19;94891.41;4988801;28;20138;-74
2021/08/05 10:44:37;;;;;;;2.83;2.60;;;;;;;28.76;42.34;94878.72;4989953;28;20047;-74
2021/08/05 10:47:07;;;;;;;3.15;2.80;;;;;;;29.11;41.65;94888.06;4989328;28;20035;-75
2021/08/05 10:49:34;;;;;;;3.60;2.70;;;;;;;29.36;41.24;94881.94;4989943;28;20038;-75
2021/08/05 10:51:59;;;;;;;2.60;2.40;;;;;;;29.55;40.30;94871.31;5004620;28;20395;-75
2021/08/05 10:54:52;;;;;;;2.92;2.72;;;;;;;30.08;38.74;94885.47;4991810;28;20031;-75
2021/08/05 10:57:19;;;;;;;2.28;2.08;;;;;;;30.69;39.55;94882.47;4985086;28;20092;-75
2021/08/05 11:00:06;;;;;;;2.22;2.13;;;;;;;30.82;37.92;94870.75;4992754;28;20074;-75
2021/08/05 11:02:51;;;;;;;2.38;2.20;;;;;;;28.95;38.47;94875.16;4993956;28;20104;-75
2021/08/05 11:05:22;;;;;;;2.95;2.10;;;;;;;28.69;38.69;94865.22;4992652;28;20038;-74
2021/08/05 11:07:49;;;;;;;2.53;2.22;;;;;;;28.55;37.75;94871.81;4993458;28;20038;-75
2021/08/05 11:10:15;;;;;;;3.33;2.70;;;;;;;27.36;39.07;94869.94;4993697;28;20160;-73
2021/08/05 11:12:45;;;;;;;2.45;2.17;;;;;;;27.27;39.70;94872.44;4994843;28;20443;-72
2021/08/05 11:15:23;;;;;;;3.05;2.30;;;;;;;27.72;39.75;94869.28;4992100;28;20046;-67
2021/08/05 11:18:16;;;;;;;2.40;2.20;;;;;;;28.44;39.93;94879.50;5004259;28;20043;-73
2021/08/05 11:21:02;;;;;;;2.42;2.22;;;;;;;28.08;39.38;94872.03;4993593;28;20038;-80
2021/08/05 11:23:37;;;;;;;3.35;2.10;;;;;;;29.12;37.34;94872.41;4977626;28;20403;-74
2021/08/05 11:26:09;;;;;;;2.92;1.90;;;;;;;29.71;38.00;94863.81;4992579;28;20042;-76
2021/08/05 11:28:40;;;;;;;4.90;2.08;;;;;;;29.04;35.43;94860.88;4985118;28;20069;-76
2021/08/05 11:31:07;;;;;;;2.10;1.90;;;;;;;26.11;38.63;94806.50;5005698;28;20088;-78